Terminal Aerodrome Forecast
Issued by NWS Sioux Falls, SD

Home | Current Version | Previous Version | Text Only | Print | Product List | Glossary Off
Versions: 1 2 3 4 5 6 7 8 9 10 11 12 13 14 15 16 17 18 19 20 21 22 23

000
FTUS43 KFSD 301321 AAB
TAFHON
TAF AMD
KHON 301321Z 3013/0112 11007KT 5SM FU SCT050 BKN100
      TEMPO 3013/3014 5SM -TSRA BKN070CB
     FM301700 11007KT 6SM FU SCT050 BKN100=

USA.gov is the U.S. government's official web portal to all federal, state and local government web resources and services.